Time;durP1;ratioP1;P1;durP2;ratioP2;P2;SDS_P1;SDS_P2;PMS_P1;PMS_P2;Temp;Humidity;BMP_temperature;BMP_pressure;BME280_temperature;BME280_humidity;BME280_pressure;Samples;Min_cycle;Max_cycle;Signal;HPM_P1;HPM_P2
2022/04/10 00:01:18;;;;;;;4.57;2.30;;;;;;;;;;4992535;28;20245;-83
2022/04/10 00:03:44;;;;;;;5.27;2.70;;;;;;;;;;4997297;28;20315;-84
2022/04/10 00:06:09;;;;;;;5.63;2.60;;;;;;;;;;4981832;28;20840;-84
2022/04/10 00:08:37;;;;;;;8.33;2.30;;;;;;;;;;4992319;28;20224;-83
2022/04/10 00:11:02;;;;;;;4.83;2.47;;;;;;;;;;4989737;28;20297;-81
2022/04/10 00:13:30;;;;;;;7.43;2.90;;;;;;;;;;4953083;28;20305;-83
2022/04/10 00:15:56;;;;;;;8.00;2.43;;;;;;;;;;4988011;28;20221;-81
2022/04/10 00:18:21;;;;;;;9.73;2.97;;;;;;;;;;4970297;28;20228;-83
2022/04/10 00:20:47;;;;;;;8.23;3.10;;;;;;;;;;4986377;28;20223;-84
2022/04/10 00:23:12;;;;;;;10.60;3.10;;;;;;;;;;4992968;28;20759;-82
2022/04/10 00:25:40;;;;;;;9.50;2.80;;;;;;;;;;4969270;28;20225;-82
2022/04/10 00:28:07;;;;;;;7.77;3.00;;;;;;;;;;4972468;28;20221;-85
2022/04/10 00:30:33;;;;;;;6.23;3.03;;;;;;;;;;4987313;28;20299;-84
2022/04/10 00:32:59;;;;;;;7.50;3.00;;;;;;;;;;4983207;28;20317;-83
2022/04/10 00:35:24;;;;;;;5.83;2.90;;;;;;;;;;4998903;28;20271;-81
2022/04/10 00:37:50;;;;;;;8.97;3.00;;;;;;;;;;4982900;28;20299;-84
2022/04/10 00:40:16;;;;;;;8.53;3.03;;;;;;;;;;4999479;28;20248;-84
2022/04/10 00:42:51;;;;;;;6.80;2.93;;;;;;;;;;4976330;28;20275;-84
2022/04/10 00:45:20;;;;;;;8.20;3.17;;;;;;;;;;4987518;28;20232;-85
2022/04/10 00:47:48;;;;;;;7.03;3.20;;;;;;;;;;4968764;28;20227;-81
2022/04/10 00:50:15;;;;;;;7.93;2.97;;;;;;;;;;4983313;28;20292;-83
2022/04/10 00:52:41;;;;;;;5.10;2.83;;;;;;;;;;4979980;28;20289;-82
2022/04/10 00:55:07;;;;;;;7.77;3.07;;;;;;;;;;4990406;28;20258;-80
2022/04/10 00:57:33;;;;;;;7.73;3.30;;;;;;;;;;5000107;28;20225;-81
2022/04/10 00:59:59;;;;;;;5.43;3.10;;;;;;;;;;4956092;28;20297;-85
2022/04/10 01:02:24;;;;;;;8.47;2.90;;;;;;;;;;4981249;28;20233;-83
2022/04/10 01:04:52;;;;;;;6.60;3.10;;;;;;;;;;4982377;28;20308;-83
2022/04/10 01:07:18;;;;;;;5.00;2.53;;;;;;;;;;4953865;28;20218;-83
2022/04/10 01:09:49;;;;;;;6.23;2.80;;;;;;;;;;4988154;28;20229;-79
2022/04/10 01:12:15;;;;;;;10.03;2.83;;;;;;;;;;4995675;23;20322;-79
2022/04/10 01:14:45;;;;;;;8.00;2.70;;;;;;;;;;4978918;28;20222;-76
2022/04/10 01:17:15;;;;;;;8.40;3.00;;;;;;;;;;4980279;28;20799;-76
2022/04/10 01:19:41;;;;;;;9.10;3.20;;;;;;;;;;4967253;28;20217;-75
2022/04/10 01:22:09;;;;;;;8.10;2.80;;;;;;;;;;4957258;28;20222;-77
2022/04/10 01:24:47;;;;;;;10.23;2.70;;;;;;;;;;4949724;28;20241;-79
2022/04/10 01:27:18;;;;;;;8.97;2.37;;;;;;;;;;4942816;28;20241;-76
2022/04/10 01:29:44;;;;;;;7.20;2.90;;;;;;;;;;4950515;28;20230;-76
2022/04/10 01:32:09;;;;;;;7.73;2.90;;;;;;;;;;4957974;28;20281;-77
2022/04/10 01:34:39;;;;;;;8.47;3.40;;;;;;;;;;4953447;28;20227;-76
2022/04/10 01:37:07;;;;;;;9.87;2.90;;;;;;;;;;4955196;28;20260;-77
2022/04/10 01:39:34;;;;;;;7.47;2.90;;;;;;;;;;4937434;28;20641;-77
2022/04/10 01:41:59;;;;;;;6.90;3.30;;;;;;;;;;4942348;28;20225;-77
2022/04/10 01:44:26;;;;;;;8.20;2.90;;;;;;;;;;4939667;28;20649;-78
2022/04/10 01:46:51;;;;;;;6.93;3.17;;;;;;;;;;4978899;28;20244;-77
2022/04/10 01:49:17;;;;;;;8.33;3.63;;;;;;;;;;4940841;28;20240;-77
2022/04/10 01:51:42;;;;;;;5.77;2.97;;;;;;;;;;4976862;28;20240;-77
2022/04/10 01:54:10;;;;;;;9.13;3.63;;;;;;;;;;4949576;28;20674;-77
2022/04/10 01:56:36;;;;;;;10.57;3.67;;;;;;;;;;4971736;28;20699;-77
2022/04/10 01:59:03;;;;;;;10.97;3.90;;;;;;;;;;4955640;28;20700;-76
2022/04/10 02:01:29;;;;;;;8.57;3.37;;;;;;;;;;4946388;28;20244;-76
2022/04/10 02:03:57;;;;;;;7.27;3.37;;;;;;;;;;4950249;28;20218;-77
2022/04/10 02:06:22;;;;;;;12.53;3.70;;;;;;;;;;4964593;28;20214;-77
2022/04/10 02:08:50;;;;;;;8.57;3.60;;;;;;;;;;4970864;28;20214;-78
2022/04/10 02:11:19;;;;;;;6.63;3.20;;;;;;;;;;4951826;28;20308;-77
2022/04/10 02:13:48;;;;;;;7.93;3.03;;;;;;;;;;4956250;28;20229;-78
2022/04/10 02:16:18;;;;;;;8.63;4.03;;;;;;;;;;4972820;28;20252;-76
2022/04/10 02:18:46;;;;;;;11.27;3.77;;;;;;;;;;4957740;28;20229;-78
2022/04/10 02:21:11;;;;;;;11.53;3.27;;;;;;;;;;4940912;28;21264;-77
2022/04/10 02:23:39;;;;;;;8.23;3.20;;;;;;;;;;4970423;28;20228;-76
2022/04/10 02:26:10;;;;;;;6.50;3.50;;;;;;;;;;4957015;28;20292;-76
2022/04/10 02:28:38;;;;;;;6.37;3.10;;;;;;;;;;4970312;28;20280;-78
2022/04/10 02:31:04;;;;;;;11.53;3.63;;;;;;;;;;4952943;28;20691;-77
2022/04/10 02:33:32;;;;;;;9.50;3.67;;;;;;;;;;4966887;28;20328;-76
2022/04/10 02:35:58;;;;;;;7.97;3.67;;;;;;;;;;4974882;28;20223;-77
2022/04/10 02:38:23;;;;;;;9.07;3.40;;;;;;;;;;4988266;28;20221;-78
2022/04/10 02:40:49;;;;;;;7.73;3.63;;;;;;;;;;4993128;28;20692;-78
2022/04/10 02:43:16;;;;;;;7.87;4.27;;;;;;;;;;4947568;28;20316;-77
2022/04/10 02:45:45;;;;;;;8.23;3.87;;;;;;;;;;4941893;28;20550;-76
2022/04/10 02:48:10;;;;;;;11.17;4.50;;;;;;;;;;4972631;28;20241;-79
2022/04/10 02:50:42;;;;;;;7.90;3.30;;;;;;;;;;4955630;28;20241;-78
2022/04/10 02:53:08;;;;;;;9.03;3.47;;;;;;;;;;4959251;28;20252;-77
2022/04/10 02:55:35;;;;;;;7.60;3.87;;;;;;;;;;4927757;28;20217;-80
2022/04/10 02:58:03;;;;;;;11.50;4.00;;;;;;;;;;4964849;28;20803;-78
2022/04/10 03:00:31;;;;;;;6.97;3.67;;;;;;;;;;4942675;28;20225;-78
2022/04/10 03:02:56;;;;;;;11.73;3.60;;;;;;;;;;4943187;28;20210;-77
2022/04/10 03:05:22;;;;;;;10.27;3.73;;;;;;;;;;4958433;28;20593;-78
2022/04/10 03:07:50;;;;;;;11.27;4.03;;;;;;;;;;4972987;28;20230;-78
2022/04/10 03:10:18;;;;;;;7.47;4.10;;;;;;;;;;4959094;28;20692;-76
2022/04/10 03:12:45;;;;;;;14.50;5.33;;;;;;;;;;4984652;28;20225;-76
2022/04/10 03:15:13;;;;;;;11.53;4.67;;;;;;;;;;4958545;28;20265;-77
2022/04/10 03:17:40;;;;;;;9.67;5.10;;;;;;;;;;4950333;28;20249;-77
2022/04/10 03:20:07;;;;;;;11.20;5.30;;;;;;;;;;4961950;28;20232;-76
2022/04/10 03:22:35;;;;;;;10.83;5.23;;;;;;;;;;4975370;28;20218;-76
2022/04/10 03:25:01;;;;;;;12.10;5.67;;;;;;;;;;4972628;28;20217;-79
2022/04/10 03:27:27;;;;;;;11.93;4.90;;;;;;;;;;4954071;28;20303;-78
2022/04/10 03:29:53;;;;;;;13.50;4.97;;;;;;;;;;4978356;28;20300;-77
2022/04/10 03:32:18;;;;;;;11.20;5.43;;;;;;;;;;4978444;28;20226;-78
2022/04/10 03:34:44;;;;;;;11.17;4.40;;;;;;;;;;4945336;28;20715;-79
2022/04/10 03:37:09;;;;;;;8.77;4.50;;;;;;;;;;4976376;28;20364;-79
2022/04/10 03:39:37;;;;;;;8.43;4.10;;;;;;;;;;4958107;28;20239;-77
2022/04/10 03:42:03;;;;;;;7.97;4.30;;;;;;;;;;4959968;28;20253;-77
2022/04/10 03:44:31;;;;;;;9.37;3.93;;;;;;;;;;4970443;28;20221;-79
2022/04/10 03:46:59;;;;;;;10.00;3.97;;;;;;;;;;4950310;28;20361;-78
2022/04/10 03:49:25;;;;;;;10.87;4.40;;;;;;;;;;4948482;28;20225;-76
2022/04/10 03:51:53;;;;;;;10.40;4.33;;;;;;;;;;4971836;28;20295;-77
2022/04/10 03:54:20;;;;;;;7.40;3.90;;;;;;;;;;4974293;28;20305;-77
2022/04/10 03:56:45;;;;;;;10.23;4.47;;;;;;;;;;4947741;28;20241;-78
2022/04/10 03:59:13;;;;;;;6.40;3.90;;;;;;;;;;4949489;28;20226;-78
2022/04/10 04:01:39;;;;;;;7.77;3.70;;;;;;;;;;4957032;28;20225;-78
2022/04/10 04:04:05;;;;;;;10.57;4.20;;;;;;;;;;4974158;28;20245;-77
2022/04/10 04:06:30;;;;;;;14.50;4.23;;;;;;;;;;4955100;28;20234;-77
2022/04/10 04:08:56;;;;;;;13.20;4.20;;;;;;;;;;4975155;28;20309;-77
2022/04/10 04:11:24;;;;;;;10.43;4.50;;;;;;;;;;4954741;28;20692;-77
2022/04/10 04:13:51;;;;;;;10.70;4.47;;;;;;;;;;4976783;28;20229;-77
2022/04/10 04:16:19;;;;;;;11.47;3.90;;;;;;;;;;4956612;28;20276;-77
2022/04/10 04:18:45;;;;;;;9.07;3.47;;;;;;;;;;4988184;28;20320;-76
2022/04/10 04:21:10;;;;;;;8.27;3.80;;;;;;;;;;4971943;28;20336;-78
2022/04/10 04:23:41;;;;;;;10.13;3.83;;;;;;;;;;4974815;28;20300;-77
2022/04/10 04:26:07;;;;;;;7.67;3.57;;;;;;;;;;4972822;28;20284;-76
2022/04/10 04:28:36;;;;;;;9.47;3.37;;;;;;;;;;4958850;28;20770;-78
2022/04/10 04:31:04;;;;;;;9.97;3.90;;;;;;;;;;4971518;28;20225;-77
2022/04/10 04:33:30;;;;;;;7.83;3.50;;;;;;;;;;4925705;28;20618;-78
2022/04/10 04:35:56;;;;;;;9.27;3.60;;;;;;;;;;4984779;28;20229;-76
2022/04/10 04:38:27;;;;;;;13.57;4.03;;;;;;;;;;4959527;28;20232;-78
2022/04/10 04:40:54;;;;;;;11.43;3.60;;;;;;;;;;4944889;28;20229;-76
2022/04/10 04:43:20;;;;;;;10.67;3.93;;;;;;;;;;4990224;28;20229;-78
2022/04/10 04:45:46;;;;;;;12.13;3.80;;;;;;;;;;4989684;28;20313;-76
2022/04/10 04:48:14;;;;;;;9.47;4.30;;;;;;;;;;4951207;28;20222;-78
2022/04/10 04:50:44;;;;;;;11.57;3.60;;;;;;;;;;4990590;28;20700;-79
2022/04/10 04:53:15;;;;;;;12.87;3.80;;;;;;;;;;4972767;28;20221;-77
2022/04/10 04:55:42;;;;;;;12.27;3.47;;;;;;;;;;4952446;28;20224;-77
2022/04/10 04:58:08;;;;;;;12.97;4.13;;;;;;;;;;4973027;28;20307;-78
2022/04/10 05:00:37;;;;;;;10.17;4.27;;;;;;;;;;4955663;28;20211;-76
2022/04/10 05:03:05;;;;;;;14.50;4.00;;;;;;;;;;4972073;28;20831;-78
2022/04/10 05:05:30;;;;;;;11.47;3.50;;;;;;;;;;4959116;28;20598;-79
2022/04/10 05:08:04;;;;;;;7.80;3.70;;;;;;;;;;4981932;28;20236;-78
2022/04/10 05:10:30;;;;;;;9.73;3.60;;;;;;;;;;4972249;28;20321;-78
2022/04/10 05:12:56;;;;;;;11.50;4.07;;;;;;;;;;4956264;28;20218;-77
2022/04/10 05:15:24;;;;;;;11.10;3.60;;;;;;;;;;4962759;28;20718;-77
2022/04/10 05:17:51;;;;;;;10.27;3.93;;;;;;;;;;4989007;28;20233;-77
2022/04/10 05:20:20;;;;;;;10.30;3.63;;;;;;;;;;4980149;28;20225;-77
2022/04/10 05:23:03;;;;;;;9.83;3.30;;;;;;;;;;4955811;28;20277;-78
2022/04/10 05:25:33;;;;;;;12.27;4.40;;;;;;;;;;4976242;28;20221;-77
2022/04/10 05:27:58;;;;;;;13.20;4.40;;;;;;;;;;4936947;28;20286;-79
2022/04/10 05:30:28;;;;;;;13.53;4.00;;;;;;;;;;4988150;28;20268;-78
2022/04/10 05:32:57;;;;;;;13.17;3.40;;;;;;;;;;4973598;28;20237;-77
2022/04/10 05:35:22;;;;;;;10.37;3.47;;;;;;;;;;4975059;28;20588;-78
2022/04/10 05:37:50;;;;;;;8.70;2.93;;;;;;;;;;4958664;28;20225;-77
2022/04/10 05:40:22;;;;;;;9.80;3.43;;;;;;;;;;4987454;28;20260;-78
2022/04/10 05:42:47;;;;;;;10.00;3.57;;;;;;;;;;4944672;28;20218;-77
2022/04/10 05:45:16;;;;;;;15.80;3.80;;;;;;;;;;4955069;28;20221;-75
2022/04/10 05:47:47;;;;;;;9.47;3.23;;;;;;;;;;4961686;28;20240;-78
2022/04/10 05:50:14;;;;;;;8.80;3.40;;;;;;;;;;4956373;28;20229;-77
2022/04/10 05:52:50;;;;;;;13.47;3.37;;;;;;;;;;4949244;28;20596;-75
2022/04/10 05:55:18;;;;;;;12.73;3.20;;;;;;;;;;4956399;28;20637;-76
2022/04/10 05:57:44;;;;;;;7.57;3.00;;;;;;;;;;4948960;28;20217;-77
2022/04/10 06:00:13;;;;;;;9.37;3.30;;;;;;;;;;4967670;28;20236;-76
2022/04/10 06:02:52;;;;;;;15.90;4.10;;;;;;;;;;4957193;28;20217;-77
2022/04/10 06:05:20;;;;;;;8.23;3.47;;;;;;;;;;4958445;28;20313;-78
2022/04/10 06:07:55;;;;;;;8.50;3.07;;;;;;;;;;4953672;28;20225;-76
2022/04/10 06:10:27;;;;;;;11.93;3.00;;;;;;;;;;4951855;28;20431;-76
2022/04/10 06:12:53;;;;;;;10.30;3.40;;;;;;;;;;4952374;28;20228;-74
2022/04/10 06:15:21;;;;;;;13.70;3.70;;;;;;;;;;4944808;28;20654;-77
2022/04/10 06:17:52;;;;;;;11.83;3.20;;;;;;;;;;4958711;28;20225;-76
2022/04/10 06:20:20;;;;;;;6.97;2.60;;;;;;;;;;4967171;28;20278;-77
2022/04/10 06:22:50;;;;;;;10.73;2.80;;;;;;;;;;4947823;28;20221;-75
2022/04/10 06:25:20;;;;;;;11.03;3.03;;;;;;;;;;4959760;28;20218;-74
2022/04/10 06:27:48;;;;;;;11.77;2.67;;;;;;;;;;4967666;28;20253;-79
2022/04/10 06:30:14;;;;;;;8.63;3.03;;;;;;;;;;4958197;28;20217;-78
2022/04/10 06:32:48;;;;;;;8.83;3.03;;;;;;;;;;4958678;28;20310;-75
2022/04/10 06:35:16;;;;;;;11.40;2.60;;;;;;;;;;4992495;28;20300;-76
2022/04/10 06:37:45;;;;;;;10.13;2.90;;;;;;;;;;4957590;28;20221;-76
2022/04/10 06:40:12;;;;;;;10.07;3.40;;;;;;;;;;4962234;28;20221;-78
2022/04/10 06:42:40;;;;;;;10.57;3.00;;;;;;;;;;4972347;28;20903;-78
2022/04/10 06:45:24;;;;;;;11.47;2.90;;;;;;;;;;4962757;28;20271;-78
2022/04/10 06:48:06;;;;;;;11.07;2.93;;;;;;;;;;4972021;28;20246;-78
2022/04/10 06:50:56;;;;;;;11.00;3.13;;;;;;;;;;5000302;28;20233;-79
2022/04/10 06:53:28;;;;;;;10.50;3.07;;;;;;;;;;4990670;28;20248;-82
2022/04/10 06:55:54;;;;;;;10.10;3.20;;;;;;;;;;4994839;28;20220;-78
2022/04/10 06:58:22;;;;;;;10.63;3.20;;;;;;;;;;5005174;28;20353;-78
2022/04/10 07:00:50;;;;;;;11.87;3.23;;;;;;;;;;4959605;28;20229;-77
2022/04/10 07:03:15;;;;;;;13.50;3.47;;;;;;;;;;4985476;28;20218;-80
2022/04/10 07:05:42;;;;;;;10.13;3.00;;;;;;;;;;4993530;28;20202;-77
2022/04/10 07:08:15;;;;;;;7.23;2.77;;;;;;;;;;4971104;28;20245;-78
2022/04/10 07:10:45;;;;;;;10.80;4.37;;;;;;;;;;4972477;28;20264;-77
2022/04/10 07:13:22;;;;;;;8.63;2.70;;;;;;;;;;4951121;28;20222;-78
2022/04/10 07:15:50;;;;;;;8.13;3.20;;;;;;;;;;4976204;28;20229;-78
2022/04/10 07:18:16;;;;;;;9.17;2.90;;;;;;;;;;4960998;28;20611;-79
2022/04/10 07:20:45;;;;;;;10.23;3.03;;;;;;;;;;4997157;28;20218;-79
2022/04/10 07:25:57;;;;;;;9.43;2.90;;;;;;;;;;4993531;28;20226;-79
2022/04/10 07:28:24;;;;;;;8.47;2.77;;;;;;;;;;4943212;28;20221;-79
2022/04/10 07:30:55;;;;;;;10.77;3.17;;;;;;;;;;4958251;28;20253;-78
2022/04/10 07:33:21;;;;;;;11.63;3.13;;;;;;;;;;4972852;28;20219;-78
2022/04/10 07:35:59;;;;;;;7.00;2.63;;;;;;;;;;4975654;28;20325;-79
2022/04/10 07:38:35;;;;;;;8.07;2.83;;;;;;;;;;4960881;28;20856;-80
2022/04/10 07:41:05;;;;;;;10.87;3.00;;;;;;;;;;4951229;28;20215;-79
2022/04/10 07:43:39;;;;;;;9.17;3.40;;;;;;;;;;4965327;28;20224;-79
2022/04/10 07:48:58;;;;;;;10.53;2.90;;;;;;;;;;4964527;28;20333;-79
2022/04/10 07:51:29;;;;;;;7.57;2.97;;;;;;;;;;4955719;28;20624;-80
2022/04/10 07:54:05;;;;;;;7.20;2.83;;;;;;;;;;4990734;28;20217;-77
2022/04/10 07:56:31;;;;;;;8.30;3.00;;;;;;;;;;4979733;28;20218;-78
2022/04/10 07:59:00;;;;;;;8.23;2.93;;;;;;;;;;4994354;28;20249;-79
2022/04/10 08:01:41;;;;;;;9.73;2.93;;;;;;;;;;4980945;28;20224;-77
2022/04/10 08:04:16;;;;;;;8.97;3.20;;;;;;;;;;4959032;28;20253;-80
2022/04/10 08:06:58;;;;;;;9.67;3.07;;;;;;;;;;4973354;28;20224;-79
2022/04/10 08:09:23;;;;;;;8.47;2.97;;;;;;;;;;4965944;28;20225;-79
2022/04/10 08:11:51;;;;;;;9.17;2.77;;;;;;;;;;4942784;28;20671;-79
2022/04/10 08:14:17;;;;;;;8.93;2.50;;;;;;;;;;4948335;28;20222;-80
2022/04/10 08:16:47;;;;;;;7.87;2.83;;;;;;;;;;4980420;28;20248;-81
2022/04/10 08:19:18;;;;;;;6.70;2.57;;;;;;;;;;4989492;28;20236;-80
2022/04/10 08:21:43;;;;;;;7.77;2.60;;;;;;;;;;4973314;28;20260;-79
2022/04/10 08:24:09;;;;;;;9.53;3.30;;;;;;;;;;4992675;28;20309;-79
2022/04/10 08:26:35;;;;;;;6.23;2.47;;;;;;;;;;4937268;28;20213;-78
2022/04/10 08:29:00;;;;;;;8.10;2.90;;;;;;;;;;4973319;28;20718;-78
2022/04/10 08:31:29;;;;;;;7.07;2.53;;;;;;;;;;4984005;28;20230;-79
2022/04/10 08:33:57;;;;;;;7.07;2.80;;;;;;;;;;4980208;28;20225;-78
2022/04/10 08:36:25;;;;;;;8.27;2.50;;;;;;;;;;4975395;28;20233;-80
2022/04/10 08:38:53;;;;;;;10.10;2.43;;;;;;;;;;4970073;28;20284;-78
2022/04/10 08:41:23;;;;;;;5.83;2.50;;;;;;;;;;4966572;28;20225;-79
2022/04/10 08:43:52;;;;;;;6.63;3.00;;;;;;;;;;4955336;28;20694;-80
2022/04/10 08:46:20;;;;;;;5.90;2.73;;;;;;;;;;4964729;28;20222;-79
2022/04/10 08:48:45;;;;;;;9.10;2.50;;;;;;;;;;4973470;28;20225;-79
2022/04/10 08:51:13;;;;;;;5.57;1.97;;;;;;;;;;4975190;28;20691;-80
2022/04/10 08:53:38;;;;;;;11.67;3.00;;;;;;;;;;4979326;28;20248;-78
2022/04/10 08:56:06;;;;;;;11.17;2.43;;;;;;;;;;4944732;28;20247;-77
2022/04/10 08:58:31;;;;;;;10.73;2.90;;;;;;;;;;4953618;28;20294;-78
2022/04/10 09:00:59;;;;;;;6.97;2.50;;;;;;;;;;4990724;28;20221;-79
2022/04/10 09:03:27;;;;;;;8.03;2.50;;;;;;;;;;4968539;28;20257;-77
2022/04/10 09:06:10;;;;;;;7.03;2.53;;;;;;;;;;4987890;28;20691;-79
2022/04/10 09:08:36;;;;;;;6.80;2.40;;;;;;;;;;4937575;28;20230;-79
2022/04/10 09:11:04;;;;;;;7.70;2.47;;;;;;;;;;4983101;28;20234;-77
2022/04/10 09:13:34;;;;;;;11.03;2.80;;;;;;;;;;4978044;28;20229;-80
2022/04/10 09:16:19;;;;;;;8.60;2.50;;;;;;;;;;4964123;28;20225;-80
2022/04/10 09:18:50;;;;;;;9.00;2.50;;;;;;;;;;4980441;28;20225;-80
2022/04/10 09:21:17;;;;;;;6.17;2.20;;;;;;;;;;4981021;28;20961;-78
2022/04/10 09:23:46;;;;;;;7.67;2.30;;;;;;;;;;4959667;28;20222;-78
2022/04/10 09:26:14;;;;;;;8.00;2.20;;;;;;;;;;4968156;28;20229;-78
2022/04/10 09:28:47;;;;;;;9.90;2.20;;;;;;;;;;4973409;28;20305;-79
2022/04/10 09:31:34;;;;;;;6.63;2.33;;;;;;;;;;4961274;28;20222;-80
2022/04/10 09:34:00;;;;;;;5.20;1.90;;;;;;;;;;4997505;28;20221;-80
2022/04/10 09:36:34;;;;;;;6.33;1.80;;;;;;;;;;4959921;28;20277;-78
2022/04/10 09:39:02;;;;;;;7.07;2.27;;;;;;;;;;4946004;28;20222;-79
2022/04/10 09:41:27;;;;;;;8.80;2.30;;;;;;;;;;4960073;28;20226;-79
2022/04/10 09:43:55;;;;;;;7.17;1.90;;;;;;;;;;4984207;28;20713;-80
2022/04/10 09:46:21;;;;;;;4.37;1.37;;;;;;;;;;4979792;28;20226;-79
2022/04/10 09:48:51;;;;;;;5.83;1.80;;;;;;;;;;4963649;28;20223;-80
2022/04/10 09:51:16;;;;;;;4.93;1.60;;;;;;;;;;4946681;28;20232;-80
2022/04/10 09:53:42;;;;;;;5.27;1.83;;;;;;;;;;4942054;28;20222;-81
2022/04/10 09:56:07;;;;;;;6.53;1.70;;;;;;;;;;4957245;28;20313;-79
2022/04/10 09:58:33;;;;;;;5.97;1.77;;;;;;;;;;4940216;28;20708;-78
2022/04/10 10:01:03;;;;;;;6.93;2.30;;;;;;;;;;4934324;28;20226;-78
2022/04/10 10:03:33;;;;;;;5.23;1.73;;;;;;;;;;4966473;28;20229;-80
2022/04/10 10:06:01;;;;;;;7.27;1.80;;;;;;;;;;4949021;28;20230;-79
2022/04/10 10:08:31;;;;;;;5.30;1.73;;;;;;;;;;4989807;28;20245;-80
2022/04/10 10:11:00;;;;;;;4.27;1.80;;;;;;;;;;4982867;28;20234;-80
2022/04/10 10:13:28;;;;;;;6.70;2.10;;;;;;;;;;4971450;28;20287;-78
2022/04/10 10:15:55;;;;;;;3.37;1.40;;;;;;;;;;4962736;28;20261;-79
2022/04/10 10:18:24;;;;;;;3.33;1.27;;;;;;;;;;4988399;28;20218;-78
2022/04/10 10:20:49;;;;;;;4.17;2.37;;;;;;;;;;4966328;28;20265;-79
2022/04/10 10:23:15;;;;;;;10.57;4.33;;;;;;;;;;4968795;28;20221;-76
2022/04/10 10:26:21;;;;;;;14.73;5.30;;;;;;;;;;4961330;28;20248;-77
2022/04/10 10:29:28;;;;;;;7.27;2.70;;;;;;;;;;4987472;28;20225;-76
2022/04/10 10:32:08;;;;;;;8.23;2.27;;;;;;;;;;4952902;28;20267;-78
2022/04/10 10:34:34;;;;;;;4.67;2.20;;;;;;;;;;4945671;28;20254;-78
2022/04/10 10:37:06;;;;;;;5.40;2.50;;;;;;;;;;4939798;28;20271;-80
2022/04/10 10:39:33;;;;;;;6.83;2.80;;;;;;;;;;4935858;28;20225;-80
2022/04/10 10:42:11;;;;;;;5.27;2.27;;;;;;;;;;4923797;28;20231;-77
2022/04/10 10:44:41;;;;;;;8.03;2.30;;;;;;;;;;4952401;28;20325;-77
2022/04/10 10:47:18;;;;;;;8.30;2.37;;;;;;;;;;4935137;28;20819;-78
2022/04/10 10:49:47;;;;;;;7.70;2.13;;;;;;;;;;4943267;28;20249;-79
2022/04/10 10:52:13;;;;;;;10.70;3.07;;;;;;;;;;4938008;28;20697;-78
2022/04/10 10:54:46;;;;;;;5.47;1.87;;;;;;;;;;4940139;28;20722;-77
2022/04/10 10:57:32;;;;;;;4.87;1.57;;;;;;;;;;4955645;28;20238;-78
2022/04/10 11:00:04;;;;;;;4.70;1.63;;;;;;;;;;4927038;28;20245;-82
2022/04/10 11:02:31;;;;;;;4.43;1.70;;;;;;;;;;4967014;28;20727;-78
2022/04/10 11:04:57;;;;;;;4.70;1.93;;;;;;;;;;4963395;28;20229;-79
2022/04/10 11:07:27;;;;;;;2.63;1.77;;;;;;;;;;4966054;28;20253;-78
2022/04/10 11:10:22;;;;;;;8.00;1.83;;;;;;;;;;4992471;28;20224;-80
2022/04/10 11:12:52;;;;;;;5.70;1.80;;;;;;;;;;4963999;28;20252;-78
2022/04/10 11:15:19;;;;;;;6.10;2.07;;;;;;;;;;4913030;28;20241;-77
2022/04/10 11:17:58;;;;;;;4.80;2.10;;;;;;;;;;4917100;28;20230;-77
2022/04/10 11:20:27;;;;;;;8.60;2.60;;;;;;;;;;4933160;28;20222;-77
2022/04/10 11:22:58;;;;;;;8.17;3.00;;;;;;;;;;4965574;28;20217;-78
2022/04/10 11:25:26;;;;;;;6.37;2.77;;;;;;;;;;4959098;28;20225;-79
2022/04/10 11:27:59;;;;;;;8.20;2.10;;;;;;;;;;4973173;28;20710;-77
2022/04/10 11:30:54;;;;;;;8.60;2.30;;;;;;;;;;4950854;28;20258;-77
2022/04/10 11:33:30;;;;;;;8.53;2.63;;;;;;;;;;4931451;28;20233;-76
2022/04/10 11:35:56;;;;;;;6.73;2.67;;;;;;;;;;4939288;28;20225;-78
2022/04/10 11:38:22;;;;;;;8.53;2.67;;;;;;;;;;4967855;28;20260;-79
2022/04/10 11:40:50;;;;;;;6.10;2.30;;;;;;;;;;4970631;28;20223;-77
2022/04/10 11:43:17;;;;;;;7.13;2.33;;;;;;;;;;4957158;28;20280;-78
2022/04/10 11:45:48;;;;;;;6.07;2.00;;;;;;;;;;4951900;28;20236;-78
2022/04/10 11:48:13;;;;;;;6.87;2.30;;;;;;;;;;4953274;28;20337;-76
2022/04/10 11:50:39;;;;;;;9.97;2.37;;;;;;;;;;4948046;28;20222;-79
2022/04/10 11:53:08;;;;;;;16.23;8.57;;;;;;;;;;4949718;28;20217;-79
2022/04/10 11:55:41;;;;;;;9.77;4.87;;;;;;;;;;4953317;28;20237;-79
2022/04/10 11:58:25;;;;;;;7.57;2.13;;;;;;;;;;4962770;28;20633;-78
2022/04/10 12:00:59;;;;;;;6.97;2.10;;;;;;;;;;4957648;28;20234;-79
2022/04/10 12:03:33;;;;;;;7.40;2.20;;;;;;;;;;4941859;28;20222;-79
2022/04/10 12:05:59;;;;;;;7.77;2.17;;;;;;;;;;4945236;28;20628;-79
2022/04/10 12:08:24;;;;;;;6.90;2.07;;;;;;;;;;4966193;28;20235;-78
2022/04/10 12:10:59;;;;;;;6.50;2.00;;;;;;;;;;4926140;28;20226;-79
2022/04/10 12:13:29;;;;;;;5.50;2.07;;;;;;;;;;4967972;28;20312;-79
2022/04/10 12:15:59;;;;;;;4.53;1.70;;;;;;;;;;4972571;28;20309;-79
2022/04/10 12:18:27;;;;;;;4.30;1.60;;;;;;;;;;4946142;28;20217;-78
2022/04/10 12:21:02;;;;;;;5.40;2.10;;;;;;;;;;4935503;28;20691;-80
2022/04/10 12:23:28;;;;;;;7.30;2.00;;;;;;;;;;4950766;28;20226;-78
2022/04/10 12:25:59;;;;;;;7.43;1.90;;;;;;;;;;4983894;28;20257;-80
2022/04/10 12:28:25;;;;;;;7.40;1.70;;;;;;;;;;4969530;28;20246;-79
2022/04/10 12:30:51;;;;;;;6.37;1.90;;;;;;;;;;4979048;28;20223;-82
2022/04/10 12:33:19;;;;;;;7.67;2.10;;;;;;;;;;4980266;28;20296;-78
2022/04/10 12:35:44;;;;;;;3.87;1.50;;;;;;;;;;5001254;28;20292;-79
2022/04/10 12:38:17;;;;;;;3.33;1.17;;;;;;;;;;4976289;28;20222;-80
2022/04/10 12:40:42;;;;;;;2.10;1.13;;;;;;;;;;4955498;28;20230;-80
2022/04/10 12:43:12;;;;;;;3.93;1.27;;;;;;;;;;4978791;28;20261;-80
2022/04/10 12:45:41;;;;;;;4.63;1.47;;;;;;;;;;4966244;28;20247;-80
2022/04/10 12:48:28;;;;;;;4.57;1.30;;;;;;;;;;4957330;28;20230;-79
2022/04/10 12:51:14;;;;;;;3.47;1.20;;;;;;;;;;4949927;28;20226;-84
2022/04/10 12:53:46;;;;;;;4.33;1.37;;;;;;;;;;4969014;28;20233;-78
2022/04/10 12:56:19;;;;;;;3.73;1.57;;;;;;;;;;4957392;28;20227;-78
2022/04/10 12:58:49;;;;;;;6.93;3.10;;;;;;;;;;4966427;28;20227;-79
2022/04/10 13:01:30;;;;;;;5.50;1.97;;;;;;;;;;4923425;28;20226;-79
2022/04/10 13:04:04;;;;;;;7.07;2.70;;;;;;;;;;4944039;28;20218;-79
2022/04/10 13:06:52;;;;;;;8.47;3.13;;;;;;;;;;4961168;28;20245;-77
2022/04/10 13:09:19;;;;;;;5.17;2.20;;;;;;;;;;4970181;28;20228;-77
2022/04/10 13:11:45;;;;;;;6.70;2.63;;;;;;;;;;4949500;28;20250;-80
2022/04/10 13:14:13;;;;;;;7.23;2.47;;;;;;;;;;4948318;28;20295;-79
2022/04/10 13:16:50;;;;;;;6.53;2.60;;;;;;;;;;4962737;28;20301;-79
2022/04/10 13:19:16;;;;;;;9.90;2.37;;;;;;;;;;4969168;28;20229;-78
2022/04/10 13:21:45;;;;;;;5.30;1.60;;;;;;;;;;4969909;28;20305;-78
2022/04/10 13:24:17;;;;;;;6.43;1.90;;;;;;;;;;4907399;28;20284;-77
2022/04/10 13:26:44;;;;;;;6.57;1.90;;;;;;;;;;4934368;28;20227;-78
2022/04/10 13:29:13;;;;;;;6.37;1.80;;;;;;;;;;4983134;28;20214;-77
2022/04/10 13:31:43;;;;;;;6.93;2.00;;;;;;;;;;4963848;28;20274;-77
2022/04/10 13:34:08;;;;;;;7.03;1.70;;;;;;;;;;4973878;28;20715;-78
2022/04/10 13:36:36;;;;;;;4.20;1.70;;;;;;;;;;4945121;28;20226;-76
2022/04/10 13:39:04;;;;;;;4.87;2.10;;;;;;;;;;4981245;28;20227;-77
2022/04/10 13:41:29;;;;;;;7.73;2.30;;;;;;;;;;4950401;28;20588;-75
2022/04/10 13:43:58;;;;;;;5.67;1.40;;;;;;;;;;4978765;28;20225;-77
2022/04/10 13:46:24;;;;;;;4.53;1.40;;;;;;;;;;4933320;28;20634;-76
2022/04/10 13:48:54;;;;;;;5.77;1.63;;;;;;;;;;4963751;28;20223;-75
2022/04/10 13:51:23;;;;;;;5.33;1.70;;;;;;;;;;4947099;28;20290;-75
2022/04/10 13:53:51;;;;;;;6.07;1.80;;;;;;;;;;4936368;28;20240;-75
2022/04/10 13:56:16;;;;;;;7.63;2.60;;;;;;;;;;4924476;28;20721;-73
2022/04/10 13:58:44;;;;;;;7.27;2.20;;;;;;;;;;4942742;28;20658;-76
2022/04/10 14:01:09;;;;;;;8.53;2.03;;;;;;;;;;4970840;28;20220;-76
2022/04/10 14:03:38;;;;;;;7.13;2.70;;;;;;;;;;4953317;28;20222;-76
2022/04/10 14:06:06;;;;;;;7.60;2.20;;;;;;;;;;4970138;28;20319;-77
2022/04/10 14:08:31;;;;;;;7.00;2.20;;;;;;;;;;4969950;28;20313;-77
2022/04/10 14:10:59;;;;;;;10.57;3.43;;;;;;;;;;4961612;28;20223;-76
2022/04/10 14:13:24;;;;;;;7.17;2.30;;;;;;;;;;4961741;28;20223;-76
2022/04/10 14:15:52;;;;;;;7.03;2.33;;;;;;;;;;4945519;28;20224;-75
2022/04/10 14:18:18;;;;;;;9.33;2.77;;;;;;;;;;4957520;28;20615;-74
2022/04/10 14:20:43;;;;;;;9.40;3.70;;;;;;;;;;4969258;28;20226;-77
2022/04/10 14:23:11;;;;;;;8.07;2.07;;;;;;;;;;4948720;28;20222;-77
2022/04/10 14:25:37;;;;;;;4.83;1.67;;;;;;;;;;4995975;23;20237;-84
2022/04/10 14:28:05;;;;;;;6.67;2.47;;;;;;;;;;4982751;28;20820;-82
2022/04/10 14:30:31;;;;;;;6.90;2.10;;;;;;;;;;4996536;28;20437;-79
2022/04/10 14:33:27;;;;;;;5.83;2.10;;;;;;;;;;4998511;28;20221;-78
2022/04/10 14:35:57;;;;;;;6.67;1.90;;;;;;;;;;4976895;28;20225;-80
2022/04/10 14:38:23;;;;;;;8.50;2.37;;;;;;;;;;4974705;28;20240;-82
2022/04/10 14:40:48;;;;;;;7.00;2.27;;;;;;;;;;4971906;28;20267;-77
2022/04/10 14:43:14;;;;;;;9.90;2.10;;;;;;;;;;4991332;28;20243;-81
2022/04/10 14:45:41;;;;;;;9.07;3.13;;;;;;;;;;4972442;28;20294;-80
2022/04/10 14:48:07;;;;;;;5.30;1.60;;;;;;;;;;4955945;28;20301;-81
2022/04/10 14:50:35;;;;;;;5.53;2.57;;;;;;;;;;4986215;28;20255;-82
2022/04/10 14:53:06;;;;;;;6.23;2.07;;;;;;;;;;4996328;28;20435;-80
2022/04/10 14:55:31;;;;;;;5.67;1.70;;;;;;;;;;5008216;28;20229;-82
2022/04/10 14:57:57;;;;;;;6.13;1.87;;;;;;;;;;4985333;28;20303;-82